createdAt,value
2023-01-23T00:04:13.583Z,2.47
2023-01-23T00:09:16.665Z,2.50
2023-01-23T00:14:20.900Z,2.15
2023-01-23T00:19:23.785Z,2.30
2023-01-23T00:24:26.706Z,2.47
2023-01-23T00:29:30.977Z,2.13
2023-01-23T00:34:33.916Z,2.70
2023-01-23T00:39:36.789Z,2.30
2023-01-23T00:44:41.046Z,2.45
2023-01-23T00:49:43.978Z,2.45
2023-01-23T00:54:47.007Z,2.20
2023-01-23T00:59:51.349Z,2.15
2023-01-23T01:04:54.287Z,2.22
2023-01-23T01:09:57.258Z,2.17
2023-01-23T01:15:02.274Z,2.33
2023-01-23T01:20:06.471Z,2.40
2023-01-23T01:25:10.092Z,2.08
2023-01-23T01:30:15.681Z,2.53
2023-01-23T01:35:18.759Z,2.72
2023-01-23T01:40:24.940Z,2.50
2023-01-23T01:46:04.960Z,2.20
2023-01-23T01:51:12.955Z,2.25
2023-01-23T01:56:17.491Z,2.40
2023-01-23T02:01:22.494Z,2.17
2023-01-23T02:06:26.316Z,2.25
2023-01-23T02:11:29.370Z,2.40
2023-01-23T02:16:40.807Z,2.53
2023-01-23T02:21:45.471Z,2.40
2023-01-23T02:26:50.055Z,2.10
2023-01-23T02:31:53.373Z,2.03
2023-01-23T02:36:56.841Z,2.13
2023-01-23T02:42:02.518Z,2.10
2023-01-23T02:47:11.670Z,2.20
2023-01-23T02:52:14.763Z,2.30
2023-01-23T02:57:19.089Z,1.92
2023-01-23T03:02:22.115Z,2.10
2023-01-23T03:07:25.113Z,2.00
2023-01-23T03:12:29.390Z,2.50
2023-01-23T03:17:32.609Z,1.95
2023-01-23T03:22:35.596Z,1.90
2023-01-23T03:27:39.854Z,2.00
2023-01-23T03:32:43.006Z,2.10
2023-01-23T03:37:46.295Z,1.92
2023-01-23T03:42:50.582Z,2.00
2023-01-23T03:47:53.513Z,2.00
2023-01-23T03:52:56.513Z,2.22
2023-01-23T03:58:00.829Z,2.17
2023-01-23T04:03:03.836Z,2.35
2023-01-23T04:08:07.154Z,1.85
2023-01-23T04:13:11.485Z,1.80
2023-01-23T04:18:14.417Z,2.05
2023-01-23T04:23:17.352Z,1.90
2023-01-23T04:28:22.149Z,2.10
2023-01-23T04:33:25.287Z,2.03
2023-01-23T04:38:29.837Z,1.85
2023-01-23T04:43:35.820Z,1.70
2023-01-23T04:48:38.714Z,1.80
2023-01-23T04:53:41.775Z,2.00
2023-01-23T04:58:46.054Z,1.92
2023-01-23T05:03:49.013Z,1.77
2023-01-23T05:08:52.587Z,2.00
2023-01-23T05:13:56.984Z,1.77
2023-01-23T05:18:59.841Z,1.92
2023-01-23T05:24:02.769Z,1.75
2023-01-23T05:29:07.184Z,1.77
2023-01-23T05:34:10.125Z,1.92
2023-01-23T05:39:13.010Z,1.92
2023-01-23T05:44:17.268Z,2.10
2023-01-23T05:49:20.231Z,1.90
2023-01-23T05:54:23.157Z,1.60
2023-01-23T05:59:27.417Z,1.73
2023-01-23T06:04:30.363Z,1.90
2023-01-23T06:09:33.410Z,2.20
2023-01-23T06:14:37.848Z,2.00
2023-01-23T06:19:40.857Z,2.28
2023-01-23T06:24:43.758Z,2.00
2023-01-23T06:29:48.082Z,2.00
2023-01-23T06:34:51.059Z,1.67
2023-01-23T06:39:53.986Z,1.90
2023-01-23T06:44:58.273Z,1.67
2023-01-23T06:50:02.015Z,1.40
2023-01-23T06:55:06.557Z,1.63
2023-01-23T07:00:12.504Z,1.45
2023-01-23T07:05:15.604Z,1.80
2023-01-23T07:10:18.825Z,1.70
2023-01-23T07:15:23.256Z,1.40
2023-01-23T07:20:28.098Z,1.98
2023-01-23T07:25:31.035Z,1.67
2023-01-23T07:30:35.856Z,1.75
2023-01-23T07:35:41.133Z,2.42
2023-01-23T07:40:45.400Z,2.00
2023-01-23T07:45:50.370Z,2.03
2023-01-23T07:50:53.318Z,2.30
2023-01-23T07:55:56.237Z,2.00
2023-01-23T08:01:00.608Z,1.80
2023-01-23T08:06:03.580Z,1.90
2023-01-23T08:11:07.259Z,1.73
2023-01-23T08:16:13.673Z,2.22
2023-01-23T08:21:16.847Z,2.00
2023-01-23T08:26:19.787Z,2.42
2023-01-23T08:31:24.369Z,2.15
2023-01-23T08:36:27.393Z,2.17
2023-01-23T08:41:30.368Z,2.00
2023-01-23T08:46:34.675Z,2.00
2023-01-23T08:51:37.590Z,2.00
2023-01-23T08:56:41.459Z,2.53
2023-01-23T09:01:47.872Z,1.83
2023-01-23T09:06:50.818Z,2.50
2023-01-23T09:11:54.820Z,2.30
2023-01-23T09:16:59.090Z,2.50
2023-01-23T09:22:02.018Z,2.30
2023-01-23T09:27:05.007Z,2.40
2023-01-23T09:32:09.377Z,2.30
2023-01-23T09:37:12.269Z,2.50
2023-01-23T09:42:20.185Z,2.20
2023-01-23T09:47:31.822Z,2.83
2023-01-23T09:52:39.933Z,2.50
2023-01-23T09:57:47.540Z,2.95
2023-01-23T10:02:53.414Z,2.58
2023-01-23T10:08:11.388Z,2.47
2023-01-23T10:13:18.109Z,2.53
2023-01-23T10:18:26.713Z,2.60
2023-01-23T10:23:42.394Z,2.63
2023-01-23T10:28:45.405Z,2.70
2023-01-23T10:33:55.400Z,2.97
2023-01-23T10:39:03.140Z,2.95
2023-01-23T10:44:14.540Z,2.70
2023-01-23T10:49:31.171Z,2.65
2023-01-23T10:54:46.680Z,3.05
2023-01-23T10:59:56.747Z,2.53
2023-01-23T11:05:05.491Z,2.58
2023-01-23T11:10:21.587Z,2.60
2023-01-23T11:15:26.280Z,2.00
2023-01-23T11:20:33.255Z,2.60
2023-01-23T11:25:38.994Z,2.28
2023-01-23T11:30:48.320Z,2.25
2023-01-23T11:36:01.843Z,2.47
2023-01-23T11:41:06.059Z,2.65
2023-01-23T11:46:22.998Z,2.53
2023-01-23T11:51:36.973Z,2.60
2023-01-23T11:56:53.063Z,2.78
2023-01-23T12:02:37.551Z,2.40
2023-01-23T12:07:50.386Z,2.50
2023-01-23T12:13:09.173Z,2.58
2023-01-23T12:18:23.154Z,2.63
2023-01-23T12:24:09.637Z,3.17
2023-01-23T12:29:40.037Z,2.47
2023-01-23T12:34:59.481Z,2.83
2023-01-23T12:40:12.867Z,2.90
2023-01-23T12:45:21.730Z,2.63
2023-01-23T12:50:30.638Z,2.63
2023-01-23T12:55:40.194Z,3.10
2023-01-23T13:00:58.300Z,2.65
2023-01-23T13:06:10.626Z,2.88
2023-01-23T13:11:40.630Z,2.92
2023-01-23T13:16:47.751Z,3.17
2023-01-23T13:22:18.973Z,2.95
2023-01-23T13:27:37.313Z,3.00
2023-01-23T13:32:40.279Z,3.53
2023-01-23T13:37:52.287Z,3.35
2023-01-23T13:42:56.634Z,3.67
2023-01-23T14:21:40.771Z,3.90
2023-01-23T14:26:50.431Z,3.53
2023-01-23T14:31:55.999Z,3.08
2023-01-23T14:37:04.987Z,3.60
2023-01-23T14:42:16.502Z,3.33
2023-01-23T14:47:34.253Z,3.63
2023-01-23T14:52:37.739Z,3.50
2023-01-23T14:57:41.139Z,3.38
2023-01-23T15:02:46.975Z,3.60
2023-01-23T15:07:54.377Z,3.45
2023-01-23T15:13:00.287Z,3.63
2023-01-23T15:18:16.311Z,3.25
2023-01-23T15:23:28.455Z,3.75
2023-01-23T15:28:32.858Z,3.35
2023-01-23T15:33:40.177Z,3.80
2023-01-23T15:38:47.697Z,14.95
2023-01-23T15:43:50.582Z,8.48
2023-01-23T15:48:55.155Z,32.72
2023-01-23T15:53:58.076Z,30.48
2023-01-23T15:59:02.760Z,21.60
2023-01-23T16:04:07.089Z,19.70
2023-01-23T16:09:18.398Z,17.77
2023-01-23T16:14:21.540Z,15.15
2023-01-23T16:19:25.805Z,13.75
2023-01-23T16:24:29.366Z,12.40
2023-01-23T16:29:34.186Z,11.45
2023-01-23T16:34:38.659Z,9.85
2023-01-23T16:39:43.486Z,9.25
2023-01-23T16:44:46.467Z,8.85
2023-01-23T16:49:52.964Z,9.88
2023-01-23T16:54:56.410Z,11.93
2023-01-23T16:59:59.760Z,13.05
2023-01-23T17:05:04.332Z,16.65
2023-01-23T17:10:08.030Z,15.68
2023-01-23T17:15:19.914Z,14.30
2023-01-23T17:20:24.626Z,13.45
2023-01-23T17:25:28.011Z,12.50
2023-01-23T17:30:30.892Z,12.35
2023-01-23T17:35:38.359Z,12.23
2023-01-23T17:40:41.466Z,11.73
2023-01-23T17:45:46.389Z,10.77
2023-01-23T17:50:50.867Z,10.93
2023-01-23T17:55:54.473Z,9.43
2023-01-23T18:00:57.464Z,8.30
2023-01-23T18:06:01.813Z,8.32
2023-01-23T18:11:04.836Z,8.43
2023-01-23T18:16:15.264Z,7.65
2023-01-23T18:21:21.296Z,7.88
2023-01-23T18:26:36.273Z,8.27
2023-01-23T18:31:48.042Z,7.63
2023-01-23T18:37:03.524Z,7.03
2023-01-23T18:42:16.467Z,7.18
2023-01-23T18:47:20.028Z,7.13
2023-01-23T18:52:31.610Z,8.02
2023-01-23T18:57:51.494Z,6.68
2023-01-23T19:02:58.050Z,6.10
2023-01-23T19:08:03.244Z,5.88
2023-01-23T19:13:19.817Z,6.00
2023-01-23T19:18:43.693Z,5.45
2023-01-23T19:23:57.342Z,6.00
2023-01-23T19:29:19.133Z,5.90
2023-01-23T19:34:23.658Z,5.60
2023-01-23T19:39:27.905Z,5.95
2023-01-23T19:44:31.096Z,5.38
2023-01-23T19:49:34.037Z,5.35
2023-01-23T19:54:38.305Z,5.03
2023-01-23T19:59:41.215Z,5.05
2023-01-23T20:04:44.166Z,5.10
2023-01-23T20:09:48.538Z,5.07
2023-01-23T20:14:51.559Z,5.45
2023-01-23T20:19:54.450Z,4.88
2023-01-23T20:24:58.742Z,4.95
2023-01-23T20:30:02.553Z,5.13
2023-01-23T20:35:06.165Z,5.47
2023-01-23T20:40:12.423Z,4.85
2023-01-23T20:45:15.404Z,4.80
2023-01-23T20:50:18.975Z,5.03
2023-01-23T20:55:23.519Z,4.97
2023-01-23T21:00:26.686Z,4.50
2023-01-23T21:05:29.577Z,3.95
2023-01-23T21:10:33.844Z,4.30
2023-01-23T21:15:36.766Z,4.20
2023-01-23T21:20:40.136Z,4.28
2023-01-23T21:25:44.505Z,4.05
2023-01-23T21:30:47.635Z,3.80
2023-01-23T21:35:51.046Z,4.75
2023-01-23T21:40:56.279Z,3.63
2023-01-23T21:45:59.227Z,4.22
2023-01-23T21:51:07.650Z,3.95
2023-01-23T21:56:13.910Z,5.60
2023-01-23T22:01:35.840Z,6.40
2023-01-23T22:06:40.534Z,5.20
2023-01-23T22:11:45.017Z,5.22
2023-01-23T22:16:49.810Z,4.65
2023-01-23T22:21:53.092Z,4.07
2023-01-23T22:26:57.486Z,4.50
2023-01-23T22:32:00.619Z,4.55
2023-01-23T22:37:03.642Z,4.43
2023-01-23T22:42:08.301Z,3.97
2023-01-23T22:47:11.298Z,4.68
2023-01-23T22:52:14.955Z,3.90
2023-01-23T22:57:19.170Z,3.70
2023-01-23T23:02:22.063Z,3.88
2023-01-23T23:07:24.955Z,3.42
2023-01-23T23:12:29.460Z,3.78
2023-01-23T23:17:32.429Z,4.20
2023-01-23T23:22:35.381Z,3.30
2023-01-23T23:27:39.853Z,3.60
2023-01-23T23:32:42.725Z,3.63
2023-01-23T23:37:45.628Z,3.50
2023-01-23T23:42:49.859Z,3.60
2023-01-23T23:47:52.807Z,3.33
2023-01-23T23:52:55.692Z,3.70
2023-01-23T23:58:00.349Z,3.38
